sensor_id;sensor_type;location;lat;lon;timestamp;pressure;altitude;pressure_sealevel;temperature;humidity
37486;BME280;23341;50.296;18.960;2022-08-30T00:01:53;149871.31;;;14.93;100.00
37486;BME280;23341;50.296;18.960;2022-08-30T00:06:59;149837.72;;;14.80;100.00
37486;BME280;23341;50.296;18.960;2022-08-30T00:12:07;149801.56;;;14.65;100.00
37486;BME280;23341;50.296;18.960;2022-08-30T00:17:12;149827.38;;;14.75;100.00
37486;BME280;23341;50.296;18.960;2022-08-30T00:22:18;149820.91;;;14.73;100.00
37486;BME280;23341;50.296;18.960;2022-08-30T00:27:22;149804.16;;;14.66;100.00
37486;BME280;23341;50.296;18.960;2022-08-30T00:32:28;149765.38;;;14.51;100.00
37486;BME280;23341;50.296;18.960;2022-08-30T00:37:34;149736.91;;;14.40;100.00
37486;BME280;23341;50.296;18.960;2022-08-30T00:42:39;149770.56;;;14.53;100.00
37486;BME280;23341;50.296;18.960;2022-08-30T00:47:43;149770.56;;;14.53;100.00
37486;BME280;23341;50.296;18.960;2022-08-30T00:52:52;149736.91;;;14.40;100.00
37486;BME280;23341;50.296;18.960;2022-08-30T00:58:01;149745.97;;;14.43;100.00
37486;BME280;23341;50.296;18.960;2022-08-30T01:03:06;149766.66;;;14.51;100.00
37486;BME280;23341;50.296;18.960;2022-08-30T01:08:13;149757.59;;;14.48;100.00
37486;BME280;23341;50.296;18.960;2022-08-30T01:13:19;149725.31;;;14.35;100.00
37486;BME280;23341;50.296;18.960;2022-08-30T01:18:25;149705.91;;;14.27;100.00
37486;BME280;23341;50.296;18.960;2022-08-30T01:23:32;149694.28;;;14.23;100.00
37486;BME280;23341;50.296;18.960;2022-08-30T01:28:40;149713.69;;;14.31;100.00
37486;BME280;23341;50.296;18.960;2022-08-30T01:33:46;149674.91;;;14.15;100.00
37486;BME280;23341;50.296;18.960;2022-08-30T01:38:54;149664.56;;;14.11;100.00
37486;BME280;23341;50.296;18.960;2022-08-30T01:44:02;149633.56;;;13.99;100.00
37486;BME280;23341;50.296;18.960;2022-08-30T01:49:09;149631.00;;;13.98;100.00
37486;BME280;23341;50.296;18.960;2022-08-30T01:54:16;149600.00;;;13.86;100.00
37486;BME280;23341;50.296;18.960;2022-08-30T01:59:20;149567.72;;;13.73;100.00
37486;BME280;23341;50.296;18.960;2022-08-30T02:04:25;149579.34;;;13.77;100.00
37486;BME280;23341;50.296;18.960;2022-08-30T02:09:32;149576.78;;;13.76;100.00
37486;BME280;23341;50.296;18.960;2022-08-30T02:14:37;149602.56;;;13.87;100.00
37486;BME280;23341;50.296;18.960;2022-08-30T02:19:42;149600.00;;;13.86;100.00
37486;BME280;23341;50.296;18.960;2022-08-30T02:24:48;149580.63;;;13.78;100.00
37486;BME280;23341;50.296;18.960;2022-08-30T02:29:52;149587.09;;;13.81;100.00
37486;BME280;23341;50.296;18.960;2022-08-30T02:34:57;149578.06;;;13.77;100.00
37486;BME280;23341;50.296;18.960;2022-08-30T02:40:05;149587.09;;;13.81;100.00
37486;BME280;23341;50.296;18.960;2022-08-30T02:45:10;149589.69;;;13.82;100.00
37486;BME280;23341;50.296;18.960;2022-08-30T02:50:16;149571.59;;;13.74;100.00
37486;BME280;23341;50.296;18.960;2022-08-30T02:55:23;149561.31;;;13.70;100.00
37486;BME280;23341;50.296;18.960;2022-08-30T03:00:27;149572.91;;;13.75;100.00
37486;BME280;23341;50.296;18.960;2022-08-30T03:05:32;149584.53;;;13.80;100.00
37486;BME280;23341;50.296;18.960;2022-08-30T03:10:43;149567.72;;;13.73;100.00
37486;BME280;23341;50.296;18.960;2022-08-30T03:15:48;149544.50;;;13.64;100.00
37486;BME280;23341;50.296;18.960;2022-08-30T03:20:52;149549.63;;;13.66;100.00
37486;BME280;23341;50.296;18.960;2022-08-30T03:25:58;149536.72;;;13.61;100.00
37486;BME280;23341;50.296;18.960;2022-08-30T03:31:03;149529.03;;;13.58;100.00
37486;BME280;23341;50.296;18.960;2022-08-30T03:36:09;149507.09;;;13.49;100.00
37486;BME280;23341;50.296;18.960;2022-08-30T03:41:16;149503.19;;;13.47;100.00
37486;BME280;23341;50.296;18.960;2022-08-30T03:46:21;149496.75;;;13.45;100.00
37486;BME280;23341;50.296;18.960;2022-08-30T03:51:31;149468.34;;;13.34;100.00
37486;BME280;23341;50.296;18.960;2022-08-30T03:56:38;149456.72;;;13.29;100.00
37486;BME280;23341;50.296;18.960;2022-08-30T04:01:43;149482.50;;;13.39;100.00
37486;BME280;23341;50.296;18.960;2022-08-30T04:06:50;149512.22;;;13.51;100.00
37486;BME280;23341;50.296;18.960;2022-08-30T04:11:57;149535.44;;;13.60;100.00
37486;BME280;23341;50.296;18.960;2022-08-30T04:17:02;149482.50;;;13.39;100.00
37486;BME280;23341;50.296;18.960;2022-08-30T04:22:07;149408.91;;;13.10;100.00
37486;BME280;23341;50.296;18.960;2022-08-30T04:27:13;149429.53;;;13.18;100.00
37486;BME280;23341;50.296;18.960;2022-08-30T04:32:22;149485.09;;;13.40;100.00
37486;BME280;23341;50.296;18.960;2022-08-30T04:37:26;149472.19;;;13.35;100.00
37486;BME280;23341;50.296;18.960;2022-08-30T04:42:34;149463.16;;;13.32;100.00
37486;BME280;23341;50.296;18.960;2022-08-30T04:47:39;149473.47;;;13.36;100.00
37486;BME280;23341;50.296;18.960;2022-08-30T04:52:44;149504.47;;;13.48;100.00
37486;BME280;23341;50.296;18.960;2022-08-30T04:57:51;149569.00;;;13.73;100.00
37486;BME280;23341;50.296;18.960;2022-08-30T05:02:56;149601.28;;;13.86;100.00
37486;BME280;23341;50.296;18.960;2022-08-30T05:08:00;149605.19;;;13.88;100.00
37486;BME280;23341;50.296;18.960;2022-08-30T05:13:07;149634.84;;;13.99;100.00
37486;BME280;23341;50.296;18.960;2022-08-30T05:18:13;149690.38;;;14.21;100.00
37486;BME280;23341;50.296;18.960;2022-08-30T05:23:18;149758.94;;;14.48;100.00
37486;BME280;23341;50.296;18.960;2022-08-30T05:28:24;149815.75;;;14.71;100.00
37486;BME280;23341;50.296;18.960;2022-08-30T05:33:28;149877.81;;;14.95;100.00
37486;BME280;23341;50.296;18.960;2022-08-30T05:38:41;149998.00;;;15.43;100.00
37486;BME280;23341;50.296;18.960;2022-08-30T05:43:48;150148.06;;;16.02;100.00
37486;BME280;23341;50.296;18.960;2022-08-30T05:48:55;150238.59;;;16.38;100.00
37486;BME280;23341;50.296;18.960;2022-08-30T05:54:00;150260.56;;;16.46;100.00
37486;BME280;23341;50.296;18.960;2022-08-30T05:59:07;150427.53;;;17.12;100.00
37486;BME280;23341;50.296;18.960;2022-08-30T06:04:12;150564.78;;;17.66;100.00
37486;BME280;23341;50.296;18.960;2022-08-30T06:09:17;150627.00;;;17.91;100.00
37486;BME280;23341;50.296;18.960;2022-08-30T06:14:23;150700.81;;;18.20;100.00
37486;BME280;23341;50.296;18.960;2022-08-30T06:19:27;150808.34;;;18.62;100.00
37486;BME280;23341;50.296;18.960;2022-08-30T06:24:32;150875.81;;;18.89;100.00
37486;BME280;23341;50.296;18.960;2022-08-30T06:30:00;150899.16;;;18.98;100.00
37486;BME280;23341;50.296;18.960;2022-08-30T06:35:06;150808.34;;;18.62;100.00
37486;BME280;23341;50.296;18.960;2022-08-30T06:40:13;150895.22;;;18.96;100.00
37486;BME280;23341;50.296;18.960;2022-08-30T06:45:21;151032.66;;;19.50;100.00
37486;BME280;23341;50.296;18.960;2022-08-30T06:50:26;151314.22;;;20.61;95.40
37486;BME280;23341;50.296;18.960;2022-08-30T06:55:31;151581.66;;;21.66;89.13
37486;BME280;23341;50.296;18.960;2022-08-30T07:00:38;151883.09;;;22.85;83.12
37486;BME280;23341;50.296;18.960;2022-08-30T07:05:43;152192.59;;;24.06;75.16
37486;BME280;23341;50.296;18.960;2022-08-30T07:10:49;152057.34;;;23.53;77.19
37486;BME280;23341;50.296;18.960;2022-08-30T07:15:55;152544.06;;;25.44;67.84
37486;BME280;23341;50.296;18.960;2022-08-30T07:21:06;152527.13;;;25.37;69.23
37486;BME280;23341;50.296;18.960;2022-08-30T07:26:13;152475.06;;;25.17;69.05
37486;BME280;23341;50.296;18.960;2022-08-30T07:31:20;152017.03;;;23.37;77.55
37486;BME280;23341;50.296;18.960;2022-08-30T07:36:25;151620.63;;;21.82;85.10
37486;BME280;23341;50.296;18.960;2022-08-30T07:41:32;152564.88;;;25.52;70.86
37486;BME280;23341;50.296;18.960;2022-08-30T07:46:40;153165.66;;;27.87;59.08
37486;BME280;23341;50.296;18.960;2022-08-30T07:51:45;152960.97;;;27.07;60.34
37486;BME280;23341;50.296;18.960;2022-08-30T07:56:50;152755.06;;;26.27;61.83
37486;BME280;23341;50.296;18.960;2022-08-30T08:01:59;152860.59;;;26.68;61.37
37486;BME280;23341;50.296;18.960;2022-08-30T08:07:03;152787.63;;;26.39;60.23
37486;BME280;23341;50.296;18.960;2022-08-30T08:12:08;152205.66;;;24.11;69.72
37486;BME280;23341;50.296;18.960;2022-08-30T08:17:15;152027.41;;;23.41;74.24
37486;BME280;23341;50.296;18.960;2022-08-30T08:22:19;153041.78;;;27.39;58.45
37486;BME280;23341;50.296;18.960;2022-08-30T08:27:24;152566.22;;;25.53;63.50
37486;BME280;23341;50.296;18.960;2022-08-30T08:32:30;152075.56;;;23.60;70.64
37486;BME280;23341;50.296;18.960;2022-08-30T08:37:34;152492.00;;;25.23;65.22
37486;BME280;23341;50.296;18.960;2022-08-30T08:42:51;152781.09;;;26.37;62.20
37486;BME280;23341;50.296;18.960;2022-08-30T08:48:02;152538.84;;;25.42;63.17
37486;BME280;23341;50.296;18.960;2022-08-30T08:53:12;152382.63;;;24.81;66.54
37486;BME280;23341;50.296;18.960;2022-08-30T08:58:49;152125.00;;;23.80;71.12
37486;BME280;23341;50.296;18.960;2022-08-30T09:03:59;151942.91;;;23.08;72.04
37486;BME280;23341;50.296;18.960;2022-08-30T09:09:04;152312.34;;;24.53;67.63
37486;BME280;23341;50.296;18.960;2022-08-30T09:14:12;152177.03;;;24.00;70.94
37486;BME280;23341;50.296;18.960;2022-08-30T09:19:35;152088.59;;;23.65;72.62
37486;BME280;23341;50.296;18.960;2022-08-30T09:24:44;152351.41;;;24.68;69.01
37486;BME280;23341;50.296;18.960;2022-08-30T09:29:55;152274.63;;;24.38;68.07
37486;BME280;23341;50.296;18.960;2022-08-30T09:35:03;152337.09;;;24.63;68.80
37486;BME280;23341;50.296;18.960;2022-08-30T09:40:16;152636.53;;;25.80;65.08
37486;BME280;23341;50.296;18.960;2022-08-30T09:45:31;152460.75;;;25.11;64.50
37486;BME280;23341;50.296;18.960;2022-08-30T09:50:37;152304.56;;;24.50;68.37
37486;BME280;23341;50.296;18.960;2022-08-30T09:55:54;152366.97;;;24.74;66.02
37486;BME280;23341;50.296;18.960;2022-08-30T10:01:09;152348.81;;;24.67;67.66
37486;BME280;23341;50.296;18.960;2022-08-30T10:06:28;152447.69;;;25.06;64.18
37486;BME280;23341;50.296;18.960;2022-08-30T10:11:46;152538.84;;;25.42;61.89
37486;BME280;23341;50.296;18.960;2022-08-30T10:17:02;152462.06;;;25.12;60.81
37486;BME280;23341;50.296;18.960;2022-08-30T10:22:20;152743.34;;;26.22;57.84
37486;BME280;23341;50.296;18.960;2022-08-30T10:27:29;152936.16;;;26.97;56.23
37486;BME280;23341;50.296;18.960;2022-08-30T10:32:42;152963.56;;;27.08;55.93
37486;BME280;23341;50.296;18.960;2022-08-30T10:37:53;152550.56;;;25.46;58.96
37486;BME280;23341;50.296;18.960;2022-08-30T10:43:03;152184.84;;;24.03;63.41
37486;BME280;23341;50.296;18.960;2022-08-30T10:48:16;152381.34;;;24.80;60.79
37486;BME280;23341;50.296;18.960;2022-08-30T10:53:29;152361.81;;;24.72;60.28
37486;BME280;23341;50.296;18.960;2022-08-30T10:58:36;152538.84;;;25.42;58.92
37486;BME280;23341;50.296;18.960;2022-08-30T11:04:14;152590.94;;;25.62;57.76
37486;BME280;23341;50.296;18.960;2022-08-30T11:09:47;152283.75;;;24.42;60.80
37486;BME280;23341;50.296;18.960;2022-08-30T11:14:55;152368.28;;;24.75;62.13
37486;BME280;23341;50.296;18.960;2022-08-30T11:20:04;152630.00;;;25.78;55.40
37486;BME280;23341;50.296;18.960;2022-08-30T11:25:47;152821.53;;;26.53;54.45
37486;BME280;23341;50.296;18.960;2022-08-30T11:31:06;152953.13;;;27.04;53.09
37486;BME280;23341;50.296;18.960;2022-08-30T11:42:26;152619.53;;;25.73;51.59
37486;BME280;23341;50.296;18.960;2022-08-30T11:47:39;152770.66;;;26.33;52.27
37486;BME280;23341;50.296;18.960;2022-08-30T11:52:54;153004.03;;;27.24;49.37
37486;BME280;23341;50.296;18.960;2022-08-30T11:58:19;153306.56;;;28.42;45.22
37486;BME280;23341;50.296;18.960;2022-08-30T12:03:31;153580.56;;;29.50;42.94
37486;BME280;23341;50.296;18.960;2022-08-30T12:08:50;153454.03;;;29.00;46.60
37486;BME280;23341;50.296;18.960;2022-08-30T12:14:04;153245.25;;;28.18;49.83
37486;BME280;23341;50.296;18.960;2022-08-30T12:19:15;153452.72;;;29.00;46.47
37486;BME280;23341;50.296;18.960;2022-08-30T12:24:24;153356.16;;;28.62;46.59
37486;BME280;23341;50.296;18.960;2022-08-30T12:29:31;152868.41;;;26.71;50.69
37486;BME280;23341;50.296;18.960;2022-08-30T12:34:49;152805.88;;;26.46;51.88
37486;BME280;23341;50.296;18.960;2022-08-30T12:40:03;152871.00;;;26.72;51.18
37486;BME280;23341;50.296;18.960;2022-08-30T12:45:12;152730.31;;;26.17;48.97
37486;BME280;23341;50.296;18.960;2022-08-30T12:50:21;152477.66;;;25.18;51.48
37486;BME280;23341;50.296;18.960;2022-08-30T12:55:28;152627.41;;;25.77;49.05
37486;BME280;23341;50.296;18.960;2022-08-30T13:00:36;152936.16;;;26.97;46.65
37486;BME280;23341;50.296;18.960;2022-08-30T13:05:45;153011.81;;;27.27;44.96
37486;BME280;23341;50.296;18.960;2022-08-30T13:10:58;153164.38;;;27.87;45.34
37486;BME280;23341;50.296;18.960;2022-08-30T13:16:22;153296.13;;;28.38;43.08
37486;BME280;23341;50.296;18.960;2022-08-30T13:21:32;153430.50;;;28.91;42.04
37486;BME280;23341;50.296;18.960;2022-08-30T13:26:37;153494.44;;;29.16;39.73
37486;BME280;23341;50.296;18.960;2022-08-30T13:31:44;153490.53;;;29.14;39.27
37486;BME280;23341;50.296;18.960;2022-08-30T13:36:54;153719.00;;;30.04;38.78
37486;BME280;23341;50.296;18.960;2022-08-30T13:41:59;153921.47;;;30.83;36.22
37486;BME280;23341;50.296;18.960;2022-08-30T13:47:25;154207.69;;;31.95;33.86
37486;BME280;23341;50.296;18.960;2022-08-30T13:52:39;154385.56;;;32.64;32.41
37486;BME280;23341;50.296;18.960;2022-08-30T13:57:44;154732.28;;;33.99;31.51
37486;BME280;23341;50.296;18.960;2022-08-30T14:02:59;154801.69;;;34.26;30.40
37486;BME280;23341;50.296;18.960;2022-08-30T14:08:06;154915.56;;;34.71;30.25
37486;BME280;23341;50.296;18.960;2022-08-30T14:13:31;154670.78;;;33.75;31.13
37486;BME280;23341;50.296;18.960;2022-08-30T14:18:37;155164.44;;;35.68;29.57
37486;BME280;23341;50.296;18.960;2022-08-30T14:23:42;154860.59;;;34.49;30.85
37486;BME280;23341;50.296;18.960;2022-08-30T14:28:47;154312.28;;;32.35;33.10
37486;BME280;23341;50.296;18.960;2022-08-30T14:33:55;153313.09;;;28.45;39.76
37486;BME280;23341;50.296;18.960;2022-08-30T14:39:00;153555.78;;;29.40;38.58
37486;BME280;23341;50.296;18.960;2022-08-30T14:44:11;154133.19;;;31.65;34.44
37486;BME280;23341;50.296;18.960;2022-08-30T14:49:18;154307.03;;;32.33;33.35
37486;BME280;23341;50.296;18.960;2022-08-30T14:54:26;154535.97;;;33.23;32.87
37486;BME280;23341;50.296;18.960;2022-08-30T14:59:31;154277.00;;;32.22;34.19
37486;BME280;23341;50.296;18.960;2022-08-30T15:04:38;153878.31;;;30.66;37.42
37486;BME280;23341;50.296;18.960;2022-08-30T15:09:44;153206.09;;;28.03;42.45
37486;BME280;23341;50.296;18.960;2022-08-30T15:14:48;153007.91;;;27.26;44.27
37486;BME280;23341;50.296;18.960;2022-08-30T15:19:55;152877.56;;;26.75;45.59
37486;BME280;23341;50.296;18.960;2022-08-30T15:25:02;152686.03;;;26.00;47.32
37486;BME280;23341;50.296;18.960;2022-08-30T15:30:08;152646.97;;;25.84;46.57
37486;BME280;23341;50.296;18.960;2022-08-30T15:35:18;152464.63;;;25.13;48.59
37486;BME280;23341;50.296;18.960;2022-08-30T15:40:24;152436.00;;;25.02;49.19
37486;BME280;23341;50.296;18.960;2022-08-30T15:45:29;152307.16;;;24.51;51.73
37486;BME280;23341;50.296;18.960;2022-08-30T15:50:36;152139.28;;;23.85;52.95
37486;BME280;23341;50.296;18.960;2022-08-30T15:55:42;152031.34;;;23.43;58.15
37486;BME280;23341;50.296;18.960;2022-08-30T16:00:46;151997.50;;;23.30;62.26
37486;BME280;23341;50.296;18.960;2022-08-30T16:05:54;151966.34;;;23.17;64.71
37486;BME280;23341;50.296;18.960;2022-08-30T16:10:59;151984.53;;;23.24;65.73
37486;BME280;23341;50.296;18.960;2022-08-30T16:16:05;151866.19;;;22.78;67.16
37486;BME280;23341;50.296;18.960;2022-08-30T16:21:17;151801.28;;;22.53;68.80
37486;BME280;23341;50.296;18.960;2022-08-30T16:26:22;151742.78;;;22.30;69.55
37486;BME280;23341;50.296;18.960;2022-08-30T16:31:28;151671.31;;;22.02;72.03
37486;BME280;23341;50.296;18.960;2022-08-30T16:36:35;151594.69;;;21.71;74.12
37486;BME280;23341;50.296;18.960;2022-08-30T16:41:42;151563.50;;;21.59;75.74
37486;BME280;23341;50.296;18.960;2022-08-30T16:46:47;151524.53;;;21.44;77.85
37486;BME280;23341;50.296;18.960;2022-08-30T16:51:57;151482.94;;;21.27;77.72
37486;BME280;23341;50.296;18.960;2022-08-30T16:57:01;151475.19;;;21.24;78.05
37486;BME280;23341;50.296;18.960;2022-08-30T17:02:07;151489.44;;;21.30;77.96
37486;BME280;23341;50.296;18.960;2022-08-30T17:07:14;151477.75;;;21.25;77.80
37486;BME280;23341;50.296;18.960;2022-08-30T17:12:24;151436.22;;;21.09;79.06
37486;BME280;23341;50.296;18.960;2022-08-30T17:17:29;151407.66;;;20.98;80.04
37486;BME280;23341;50.296;18.960;2022-08-30T17:22:35;151373.91;;;20.85;80.38
37486;BME280;23341;50.296;18.960;2022-08-30T17:27:41;151312.94;;;20.61;82.51
37486;BME280;23341;50.296;18.960;2022-08-30T17:32:46;151293.47;;;20.53;84.37
37486;BME280;23341;50.296;18.960;2022-08-30T17:37:53;151246.72;;;20.35;85.11
37486;BME280;23341;50.296;18.960;2022-08-30T17:42:57;151202.63;;;20.17;85.88
37486;BME280;23341;50.296;18.960;2022-08-30T17:48:02;151148.16;;;19.96;88.12
37486;BME280;23341;50.296;18.960;2022-08-30T17:53:10;151094.97;;;19.75;89.90
37486;BME280;23341;50.296;18.960;2022-08-30T17:58:15;151075.50;;;19.67;91.00
37486;BME280;23341;50.296;18.960;2022-08-30T18:03:24;151050.81;;;19.58;90.69
37486;BME280;23341;50.296;18.960;2022-08-30T18:08:30;151023.56;;;19.47;91.30
37486;BME280;23341;50.296;18.960;2022-08-30T18:13:36;151002.81;;;19.39;92.44
37486;BME280;23341;50.296;18.960;2022-08-30T18:18:40;150989.88;;;19.34;93.52
37486;BME280;23341;50.296;18.960;2022-08-30T18:23:50;150934.13;;;19.12;94.82
37486;BME280;23341;50.296;18.960;2022-08-30T18:28:58;150938.00;;;19.13;95.65
37486;BME280;23341;50.296;18.960;2022-08-30T18:34:03;150915.97;;;19.05;95.91
37486;BME280;23341;50.296;18.960;2022-08-30T18:39:16;150905.59;;;19.00;96.12
37486;BME280;23341;50.296;18.960;2022-08-30T18:44:23;150886.19;;;18.93;98.04
37486;BME280;23341;50.296;18.960;2022-08-30T18:49:32;150821.34;;;18.67;96.71
37486;BME280;23341;50.296;18.960;2022-08-30T18:54:42;150818.72;;;18.66;98.95
37486;BME280;23341;50.296;18.960;2022-08-30T18:59:54;150785.03;;;18.53;98.75
37486;BME280;23341;50.296;18.960;2022-08-30T19:04:59;150765.59;;;18.45;99.25
37486;BME280;23341;50.296;18.960;2022-08-30T19:10:06;150724.16;;;18.29;98.42
37486;BME280;23341;50.296;18.960;2022-08-30T19:15:13;150726.75;;;18.30;99.47
37486;BME280;23341;50.296;18.960;2022-08-30T19:20:20;150709.88;;;18.23;100.00
37486;BME280;23341;50.296;18.960;2022-08-30T19:25:28;150689.16;;;18.15;100.00
37486;BME280;23341;50.296;18.960;2022-08-30T19:30:32;150655.47;;;18.02;100.00
37486;BME280;23341;50.296;18.960;2022-08-30T19:35:37;150649.03;;;17.99;100.00
37486;BME280;23341;50.296;18.960;2022-08-30T19:40:42;150608.88;;;17.84;100.00
37486;BME280;23341;50.296;18.960;2022-08-30T19:45:52;150625.72;;;17.90;100.00
37486;BME280;23341;50.296;18.960;2022-08-30T19:50:58;150621.81;;;17.89;100.00
37486;BME280;23341;50.296;18.960;2022-08-30T19:56:05;150559.59;;;17.64;100.00
37486;BME280;23341;50.296;18.960;2022-08-30T20:01:09;150533.72;;;17.54;100.00
37486;BME280;23341;50.296;18.960;2022-08-30T20:06:34;150502.63;;;17.42;100.00
37486;BME280;23341;50.296;18.960;2022-08-30T20:11:43;150443.09;;;17.18;100.00
37486;BME280;23341;50.296;18.960;2022-08-30T20:16:56;150445.69;;;17.19;100.00
37486;BME280;23341;50.296;18.960;2022-08-30T20:22:03;150459.91;;;17.25;100.00
37486;BME280;23341;50.296;18.960;2022-08-30T20:27:12;150395.19;;;16.99;100.00
37486;BME280;23341;50.296;18.960;2022-08-30T20:32:17;150395.19;;;16.99;100.00
37486;BME280;23341;50.296;18.960;2022-08-30T20:37:23;150380.97;;;16.94;100.00
37486;BME280;23341;50.296;18.960;2022-08-30T20:42:31;150362.81;;;16.87;100.00
37486;BME280;23341;50.296;18.960;2022-08-30T20:47:35;150342.13;;;16.78;100.00
37486;BME280;23341;50.296;18.960;2022-08-30T20:52:43;150321.41;;;16.70;100.00
37486;BME280;23341;50.296;18.960;2022-08-30T20:57:49;150317.50;;;16.69;100.00
37486;BME280;23341;50.296;18.960;2022-08-30T21:02:54;150299.41;;;16.62;100.00
37486;BME280;23341;50.296;18.960;2022-08-30T21:08:00;150291.63;;;16.59;100.00
37486;BME280;23341;50.296;18.960;2022-08-30T21:13:13;150272.22;;;16.51;100.00
37486;BME280;23341;50.296;18.960;2022-08-30T21:18:19;150264.44;;;16.48;100.00
37486;BME280;23341;50.296;18.960;2022-08-30T21:23:23;150243.75;;;16.40;100.00
37486;BME280;23341;50.296;18.960;2022-08-30T21:28:30;150239.88;;;16.38;100.00
37486;BME280;23341;50.296;18.960;2022-08-30T21:33:36;150215.31;;;16.28;100.00
37486;BME280;23341;50.296;18.960;2022-08-30T21:38:41;150211.41;;;16.27;100.00
37486;BME280;23341;50.296;18.960;2022-08-30T21:43:48;150190.75;;;16.19;100.00
37486;BME280;23341;50.296;18.960;2022-08-30T21:48:57;150155.78;;;16.05;100.00
37486;BME280;23341;50.296;18.960;2022-08-30T21:54:04;150119.59;;;15.91;100.00
37486;BME280;23341;50.296;18.960;2022-08-30T21:59:13;150106.66;;;15.86;100.00
37486;BME280;23341;50.296;18.960;2022-08-30T22:04:18;150085.97;;;15.77;100.00
37486;BME280;23341;50.296;18.960;2022-08-30T22:09:28;150067.84;;;15.70;100.00
37486;BME280;23341;50.296;18.960;2022-08-30T22:14:34;150031.63;;;15.56;100.00
37486;BME280;23341;50.296;18.960;2022-08-30T22:19:39;150053.66;;;15.65;100.00
37486;BME280;23341;50.296;18.960;2022-08-30T22:24:45;150052.34;;;15.64;100.00
37486;BME280;23341;50.296;18.960;2022-08-30T22:29:51;150044.53;;;15.61;100.00
37486;BME280;23341;50.296;18.960;2022-08-30T22:34:55;150041.97;;;15.60;100.00
37486;BME280;23341;50.296;18.960;2022-08-30T22:40:00;150029.03;;;15.55;100.00
37486;BME280;23341;50.296;18.960;2022-08-30T22:45:09;149985.09;;;15.38;100.00
37486;BME280;23341;50.296;18.960;2022-08-30T22:50:13;149955.34;;;15.26;100.00
37486;BME280;23341;50.296;18.960;2022-08-30T22:55:18;149952.78;;;15.25;100.00
37486;BME280;23341;50.296;18.960;2022-08-30T23:00:26;149955.34;;;15.26;100.00
37486;BME280;23341;50.296;18.960;2022-08-30T23:05:32;149959.22;;;15.27;100.00
37486;BME280;23341;50.296;18.960;2022-08-30T23:10:36;149934.66;;;15.18;100.00
37486;BME280;23341;50.296;18.960;2022-08-30T23:15:42;149923.03;;;15.13;100.00
37486;BME280;23341;50.296;18.960;2022-08-30T23:20:47;149912.69;;;15.09;100.00
37486;BME280;23341;50.296;18.960;2022-08-30T23:25:51;149908.84;;;15.08;100.00
37486;BME280;23341;50.296;18.960;2022-08-30T23:31:16;149893.28;;;15.01;100.00
37486;BME280;23341;50.296;18.960;2022-08-30T23:36:38;149884.22;;;14.98;100.00
37486;BME280;23341;50.296;18.960;2022-08-30T23:42:00;149886.84;;;14.99;100.00
37486;BME280;23341;50.296;18.960;2022-08-30T23:47:25;149870.03;;;14.92;100.00
37486;BME280;23341;50.296;18.960;2022-08-30T23:52:47;149866.19;;;14.91;100.00
37486;BME280;23341;50.296;18.960;2022-08-30T23:58:09;149824.81;;;14.74;100.00
